createdAt,value
2018-03-07T00:01:08.890Z,7.03
2018-03-07T00:03:35.285Z,6.92
2018-03-07T00:06:01.707Z,7.07
2018-03-07T00:08:28.141Z,7.14
2018-03-07T00:10:54.620Z,7.22
2018-03-07T00:13:21.057Z,7.31
2018-03-07T00:15:47.418Z,7.35
2018-03-07T00:18:13.825Z,7.40
2018-03-07T00:20:40.215Z,7.46
2018-03-07T00:23:06.614Z,7.53
2018-03-07T00:25:32.970Z,7.55
2018-03-07T00:27:59.349Z,7.61
2018-03-07T00:30:25.794Z,7.63
2018-03-07T00:32:52.169Z,7.65
2018-03-07T00:35:18.529Z,7.74
2018-03-07T00:37:44.910Z,7.92
2018-03-07T00:40:11.286Z,8.16
2018-03-07T00:42:37.646Z,8.36
2018-03-07T00:45:04.009Z,8.51
2018-03-07T00:47:30.405Z,8.69
2018-03-07T00:49:56.794Z,8.98
2018-03-07T00:52:23.182Z,9.07
2018-03-07T00:54:49.630Z,9.29
2018-03-07T00:57:16.033Z,9.46
2018-03-07T00:59:42.462Z,9.51
2018-03-07T01:02:08.934Z,9.36
2018-03-07T01:04:35.284Z,9.32
2018-03-07T01:07:01.723Z,9.52
2018-03-07T01:09:28.146Z,9.57
2018-03-07T01:11:54.500Z,9.63
2018-03-07T01:14:20.865Z,9.60
2018-03-07T01:16:47.205Z,9.98
2018-03-07T01:19:13.597Z,9.96
2018-03-07T01:21:39.965Z,10.23
2018-03-07T01:24:06.370Z,10.18
2018-03-07T01:26:32.760Z,10.36
2018-03-07T01:28:59.209Z,10.31
2018-03-07T01:31:25.588Z,10.25
2018-03-07T01:33:51.937Z,10.24
2018-03-07T01:36:18.285Z,10.11
2018-03-07T01:38:44.697Z,10.02
2018-03-07T01:41:11.049Z,10.15
2018-03-07T01:43:37.478Z,10.21
2018-03-07T01:46:03.857Z,10.20
2018-03-07T01:48:30.353Z,10.30
2018-03-07T01:50:56.733Z,10.26
2018-03-07T01:53:23.182Z,10.25
2018-03-07T01:55:49.577Z,10.29
2018-03-07T01:58:15.925Z,10.27
2018-03-07T02:00:42.294Z,10.35
2018-03-07T02:03:08.693Z,10.17
2018-03-07T02:05:35.066Z,10.15
2018-03-07T02:08:01.442Z,10.10
2018-03-07T02:10:27.841Z,10.09
2018-03-07T02:12:54.200Z,10.32
2018-03-07T02:15:20.599Z,10.29
2018-03-07T02:17:46.977Z,10.21
2018-03-07T02:20:13.409Z,10.21
2018-03-07T02:22:39.794Z,10.26
2018-03-07T02:25:06.173Z,10.39
2018-03-07T02:27:32.610Z,10.44
2018-03-07T02:29:58.997Z,10.39
2018-03-07T02:32:25.506Z,10.25
2018-03-07T02:34:51.927Z,10.23
2018-03-07T02:37:18.376Z,10.21
2018-03-07T02:39:44.782Z,10.15
2018-03-07T02:42:11.261Z,10.01
2018-03-07T02:44:37.642Z,9.69
2018-03-07T02:47:04.106Z,9.62
2018-03-07T02:49:30.563Z,9.59
2018-03-07T02:51:56.964Z,9.64
2018-03-07T02:54:23.418Z,9.64
2018-03-07T02:56:49.795Z,9.69
2018-03-07T02:59:16.190Z,9.76
2018-03-07T03:01:42.581Z,9.88
2018-03-07T03:04:08.950Z,9.74
2018-03-07T03:06:35.333Z,9.77
2018-03-07T03:09:01.728Z,9.74
2018-03-07T03:11:28.266Z,9.66
2018-03-07T03:13:54.638Z,9.65
2018-03-07T03:16:21.045Z,9.63
2018-03-07T03:18:47.422Z,9.55
2018-03-07T03:21:13.817Z,9.34
2018-03-07T03:23:40.229Z,9.02
2018-03-07T03:26:06.628Z,8.97
2018-03-07T03:28:33.066Z,8.92
2018-03-07T03:30:59.578Z,8.87
2018-03-07T03:33:25.979Z,8.87
2018-03-07T03:35:52.457Z,8.90
2018-03-07T03:38:18.853Z,8.74
2018-03-07T03:40:45.281Z,8.65
2018-03-07T03:43:11.655Z,8.64
2018-03-07T03:45:38.069Z,8.49
2018-03-07T03:48:04.481Z,8.30
2018-03-07T03:50:30.906Z,8.07
2018-03-07T03:52:57.306Z,7.92
2018-03-07T03:55:23.674Z,7.80
2018-03-07T03:57:50.106Z,7.78
2018-03-07T04:00:16.593Z,7.67
2018-03-07T04:02:43.054Z,7.63
2018-03-07T04:05:09.482Z,7.54
2018-03-07T04:07:35.842Z,7.57
2018-03-07T04:10:02.237Z,7.36
2018-03-07T04:12:28.622Z,7.35
2018-03-07T04:14:55.246Z,7.47
2018-03-07T04:17:21.771Z,7.38
2018-03-07T04:19:48.171Z,7.37
2018-03-07T04:22:14.518Z,7.37
2018-03-07T04:24:40.902Z,7.49
2018-03-07T04:27:07.274Z,7.39
2018-03-07T04:29:33.634Z,7.37
2018-03-07T04:32:00.026Z,7.38
2018-03-07T04:34:26.424Z,7.37
2018-03-07T04:36:52.798Z,7.29
2018-03-07T04:39:19.205Z,7.33
2018-03-07T04:41:45.574Z,7.32
2018-03-07T04:44:11.950Z,7.41
2018-03-07T04:46:38.337Z,7.44
2018-03-07T04:49:04.735Z,7.52
2018-03-07T04:51:31.127Z,7.54
2018-03-07T04:53:57.522Z,7.59
2018-03-07T04:56:23.943Z,7.57
2018-03-07T04:58:50.326Z,7.46
2018-03-07T05:01:16.733Z,7.44
2018-03-07T05:03:43.104Z,7.41
2018-03-07T05:06:09.490Z,7.51
2018-03-07T05:08:35.900Z,7.33
2018-03-07T05:11:02.305Z,7.40
2018-03-07T05:13:28.660Z,7.39
2018-03-07T05:15:55.013Z,7.44
2018-03-07T05:18:21.488Z,7.40
2018-03-07T05:20:47.835Z,7.47
2018-03-07T05:23:14.202Z,7.45
2018-03-07T05:25:40.577Z,7.48
2018-03-07T05:28:06.985Z,7.54
2018-03-07T05:30:33.422Z,7.58
2018-03-07T05:32:59.842Z,7.63
2018-03-07T05:35:26.193Z,7.65
2018-03-07T05:37:52.618Z,7.70
2018-03-07T05:40:19.078Z,7.71
2018-03-07T05:42:45.494Z,7.67
2018-03-07T05:45:11.872Z,7.59
2018-03-07T05:47:38.238Z,7.50
2018-03-07T05:50:04.629Z,7.51
2018-03-07T05:52:30.989Z,7.58
2018-03-07T05:54:57.384Z,7.55
2018-03-07T05:57:23.765Z,7.42
2018-03-07T05:59:50.177Z,7.47
2018-03-07T06:02:16.584Z,7.52
2018-03-07T06:04:42.985Z,7.57
2018-03-07T06:07:09.393Z,7.59
2018-03-07T06:09:35.842Z,7.58
2018-03-07T06:12:02.301Z,7.54
2018-03-07T06:14:28.747Z,7.68
2018-03-07T06:16:55.102Z,7.69
2018-03-07T06:19:21.474Z,7.72
2018-03-07T06:21:47.901Z,7.67
2018-03-07T06:24:14.267Z,7.65
2018-03-07T06:26:40.689Z,7.61
2018-03-07T06:29:07.500Z,7.64
2018-03-07T06:31:33.921Z,7.69
2018-03-07T06:34:00.372Z,7.70
2018-03-07T06:36:26.773Z,7.82
2018-03-07T06:38:53.158Z,7.90
2018-03-07T06:41:19.543Z,7.79
2018-03-07T06:43:45.953Z,7.88
2018-03-07T06:46:12.409Z,7.99
2018-03-07T06:48:38.801Z,8.13
2018-03-07T06:51:05.262Z,8.13
2018-03-07T06:53:31.594Z,8.14
2018-03-07T06:55:57.990Z,8.06
2018-03-07T06:58:24.394Z,8.13
2018-03-07T07:00:50.786Z,8.13
2018-03-07T07:03:17.198Z,8.15
2018-03-07T07:05:43.653Z,8.21
2018-03-07T07:08:10.091Z,8.29
2018-03-07T07:10:36.836Z,8.34
2018-03-07T07:13:03.569Z,8.28
2018-03-07T07:15:30.005Z,8.34
2018-03-07T07:17:56.429Z,8.36
2018-03-07T07:20:22.915Z,8.33
2018-03-07T07:22:49.298Z,8.47
2018-03-07T07:25:15.710Z,8.51
2018-03-07T07:27:42.163Z,8.15
2018-03-07T07:30:08.574Z,8.31
2018-03-07T07:32:35.107Z,8.39
2018-03-07T07:35:01.609Z,8.36
2018-03-07T07:37:28.087Z,8.50
2018-03-07T07:39:54.474Z,8.39
2018-03-07T07:42:20.926Z,8.45
2018-03-07T07:44:47.425Z,8.30
2018-03-07T07:47:14.059Z,8.23
2018-03-07T07:49:40.583Z,8.21
2018-03-07T07:52:07.090Z,8.28
2018-03-07T07:57:05.654Z,8.16
2018-03-07T07:59:32.002Z,8.39
2018-03-07T08:01:58.518Z,8.36
2018-03-07T08:06:56.894Z,8.64
2018-03-07T08:09:23.329Z,8.60
2018-03-07T08:14:22.017Z,8.70
2018-03-07T08:16:48.574Z,8.64
2018-03-07T08:19:14.948Z,8.50
2018-03-07T08:21:41.440Z,8.52
2018-03-07T08:24:07.917Z,8.55
2018-03-07T08:26:34.374Z,8.75
2018-03-07T08:29:00.814Z,8.90
2018-03-07T08:31:27.247Z,8.79
2018-03-07T08:33:53.664Z,8.72
2018-03-07T08:36:20.163Z,8.86
2018-03-07T08:38:46.682Z,8.96
2018-03-07T08:41:13.104Z,9.10
2018-03-07T08:43:39.492Z,9.27
2018-03-07T08:46:05.912Z,9.34
2018-03-07T08:48:32.285Z,9.30
2018-03-07T08:50:58.757Z,9.52
2018-03-07T08:53:25.153Z,9.49
2018-03-07T08:55:51.539Z,9.60
2018-03-07T08:58:17.946Z,9.85
2018-03-07T09:00:44.369Z,9.95
2018-03-07T09:03:10.789Z,10.02
2018-03-07T09:05:37.390Z,10.15
2018-03-07T09:08:03.794Z,10.37
2018-03-07T09:10:30.250Z,10.56
2018-03-07T09:12:56.851Z,10.68
2018-03-07T09:15:23.310Z,10.51
2018-03-07T09:17:49.654Z,10.61
2018-03-07T09:20:16.144Z,10.73
2018-03-07T09:22:42.621Z,10.73
2018-03-07T09:25:09.041Z,10.86
2018-03-07T09:27:35.442Z,10.94
2018-03-07T09:30:01.856Z,11.00
2018-03-07T09:32:28.377Z,11.03
2018-03-07T09:34:54.804Z,10.93
2018-03-07T09:37:21.161Z,10.97
2018-03-07T09:39:47.557Z,10.87
2018-03-07T09:42:13.982Z,10.90
2018-03-07T09:44:40.493Z,11.07
2018-03-07T09:47:06.963Z,11.08
2018-03-07T09:49:33.368Z,11.22
2018-03-07T09:51:59.831Z,11.37
2018-03-07T09:54:26.206Z,11.42
2018-03-07T09:56:52.685Z,11.39
2018-03-07T09:59:19.062Z,11.30
2018-03-07T10:01:45.552Z,11.42
2018-03-07T10:04:11.978Z,11.41
2018-03-07T10:06:38.458Z,11.72
2018-03-07T10:09:04.881Z,11.87
2018-03-07T10:11:31.426Z,11.98
2018-03-07T10:13:57.854Z,11.91
2018-03-07T10:18:56.436Z,12.21
2018-03-07T10:21:22.886Z,12.17
2018-03-07T10:23:49.299Z,12.38
2018-03-07T10:26:15.691Z,12.35
2018-03-07T10:28:42.097Z,12.35
2018-03-07T10:31:08.631Z,12.46
2018-03-07T10:33:35.430Z,12.62
2018-03-07T10:36:02.131Z,12.76
2018-03-07T10:38:28.676Z,12.70
2018-03-07T10:40:55.106Z,12.81
2018-03-07T10:43:21.572Z,12.98
2018-03-07T10:45:48.026Z,13.15
2018-03-07T10:48:14.419Z,13.32
2018-03-07T10:50:40.916Z,13.21
2018-03-07T10:53:07.326Z,13.37
2018-03-07T10:55:33.886Z,13.08
2018-03-07T10:58:00.380Z,13.35
2018-03-07T11:00:32.664Z,13.43
2018-03-07T11:02:59.098Z,13.46
2018-03-07T11:05:25.498Z,13.83
2018-03-07T11:07:51.963Z,14.00
2018-03-07T11:10:18.456Z,14.06
2018-03-07T11:12:44.913Z,14.21
2018-03-07T11:15:11.331Z,14.34
2018-03-07T11:17:37.955Z,14.46
2018-03-07T11:20:04.421Z,14.16
2018-03-07T11:22:30.928Z,14.20
2018-03-07T11:24:57.346Z,14.26
2018-03-07T11:27:23.819Z,14.32
2018-03-07T11:29:50.227Z,14.27
2018-03-07T11:32:16.672Z,14.18
2018-03-07T11:34:43.090Z,14.15
2018-03-07T11:37:09.570Z,14.30
2018-03-07T11:39:36.060Z,14.43
2018-03-07T11:42:02.574Z,14.43
2018-03-07T11:44:29.091Z,14.41
2018-03-07T11:46:55.514Z,14.37
2018-03-07T11:49:21.947Z,14.29
2018-03-07T11:51:48.479Z,14.10
2018-03-07T11:54:14.987Z,14.19
2018-03-07T11:56:41.469Z,14.16
2018-03-07T11:59:07.903Z,14.07
2018-03-07T12:01:34.360Z,14.02
2018-03-07T12:04:00.776Z,14.12
2018-03-07T12:06:27.275Z,14.25
2018-03-07T12:08:53.683Z,14.24
2018-03-07T12:11:20.460Z,14.24
2018-03-07T12:13:46.921Z,14.24
2018-03-07T12:16:13.504Z,14.32
2018-03-07T12:18:40.011Z,14.33
2018-03-07T12:21:06.554Z,14.37
2018-03-07T12:23:33.163Z,14.31
2018-03-07T12:25:59.735Z,14.17
2018-03-07T12:28:26.148Z,14.05
2018-03-07T12:30:52.645Z,13.94
2018-03-07T12:33:19.138Z,13.91
2018-03-07T12:35:45.550Z,14.02
2018-03-07T12:38:11.942Z,13.97
2018-03-07T12:40:38.434Z,13.96
2018-03-07T12:43:04.933Z,14.14
2018-03-07T12:45:31.367Z,14.29
2018-03-07T12:47:57.794Z,14.31
2018-03-07T12:50:24.239Z,14.26
2018-03-07T12:52:50.670Z,14.29
2018-03-07T12:55:17.053Z,14.45
2018-03-07T12:57:43.523Z,14.60
2018-03-07T13:00:09.965Z,14.51
2018-03-07T13:02:36.449Z,14.59
2018-03-07T13:05:02.912Z,14.60
2018-03-07T13:07:29.368Z,14.40
2018-03-07T13:09:55.808Z,14.39
2018-03-07T13:12:22.314Z,14.49
2018-03-07T13:14:48.806Z,14.81
2018-03-07T13:17:15.325Z,14.79
2018-03-07T13:19:41.706Z,14.74
2018-03-07T13:22:08.181Z,14.42
2018-03-07T13:24:34.622Z,14.40
2018-03-07T13:27:01.073Z,14.67
2018-03-07T13:29:27.534Z,14.82
2018-03-07T13:31:53.981Z,14.98
2018-03-07T13:34:20.457Z,15.41
2018-03-07T13:36:46.902Z,15.54
2018-03-07T13:39:13.460Z,15.39
2018-03-07T13:41:39.949Z,15.52
2018-03-07T13:44:06.310Z,15.60
2018-03-07T13:46:32.733Z,15.40
2018-03-07T13:48:59.205Z,15.28
2018-03-07T13:51:25.634Z,15.34
2018-03-07T13:53:52.046Z,15.50
2018-03-07T13:56:18.423Z,15.30
2018-03-07T13:58:44.944Z,15.36
2018-03-07T14:01:11.434Z,15.29
2018-03-07T14:03:37.944Z,15.41
2018-03-07T14:06:04.343Z,15.54
2018-03-07T14:08:30.835Z,15.66
2018-03-07T14:10:57.327Z,15.54
2018-03-07T14:13:23.790Z,15.62
2018-03-07T14:15:50.257Z,15.80
2018-03-07T14:18:16.645Z,15.79
2018-03-07T14:20:43.074Z,15.78
2018-03-07T14:23:09.565Z,15.69
2018-03-07T14:25:35.917Z,15.59
2018-03-07T14:28:02.446Z,15.45
2018-03-07T14:30:28.926Z,15.43
2018-03-07T14:32:55.349Z,15.37
2018-03-07T14:35:21.778Z,15.36
2018-03-07T14:37:48.190Z,15.41
2018-03-07T14:40:14.621Z,15.36
2018-03-07T14:42:41.034Z,15.35
2018-03-07T14:45:07.523Z,15.37
2018-03-07T14:47:34.039Z,15.32
2018-03-07T14:50:00.409Z,15.32
2018-03-07T14:52:26.914Z,15.27
2018-03-07T14:54:53.330Z,15.26
2018-03-07T14:57:19.689Z,15.23
2018-03-07T14:59:46.093Z,15.27
2018-03-07T15:02:12.580Z,15.29
2018-03-07T15:04:39.037Z,15.28
2018-03-07T15:07:05.518Z,15.27
2018-03-07T15:09:31.894Z,15.22
2018-03-07T15:11:58.314Z,15.21
2018-03-07T15:14:24.814Z,15.18
2018-03-07T15:16:51.276Z,15.16
2018-03-07T15:19:17.722Z,15.12
2018-03-07T15:21:44.145Z,15.09
2018-03-07T15:24:10.550Z,15.05
2018-03-07T15:26:37.002Z,15.03
2018-03-07T15:29:03.522Z,14.98
2018-03-07T15:31:30.103Z,14.95
2018-03-07T15:33:56.526Z,14.92
2018-03-07T15:36:22.982Z,14.85
2018-03-07T15:38:49.478Z,14.82
2018-03-07T15:41:15.926Z,14.80
2018-03-07T15:43:42.451Z,14.82
2018-03-07T15:46:08.841Z,14.80
2018-03-07T15:48:35.237Z,14.79
2018-03-07T15:51:01.715Z,14.74
2018-03-07T15:53:28.162Z,14.71
2018-03-07T15:55:54.629Z,14.63
2018-03-07T15:58:21.199Z,14.59
2018-03-07T16:00:47.620Z,14.54
2018-03-07T16:03:13.997Z,14.56
2018-03-07T16:05:40.430Z,14.47
2018-03-07T16:08:06.845Z,14.40
2018-03-07T16:10:33.266Z,14.41
2018-03-07T16:12:59.652Z,14.33
2018-03-07T16:15:26.054Z,14.31
2018-03-07T16:17:52.478Z,14.29
2018-03-07T16:20:18.910Z,14.16
2018-03-07T16:22:45.329Z,14.16
2018-03-07T16:25:11.798Z,14.13
2018-03-07T16:27:38.205Z,14.12
2018-03-07T16:30:04.750Z,14.06
2018-03-07T16:32:31.353Z,14.02
2018-03-07T16:34:57.766Z,13.97
2018-03-07T16:37:24.152Z,13.94
2018-03-07T16:39:50.611Z,13.93
2018-03-07T16:42:16.974Z,13.94
2018-03-07T16:44:43.407Z,13.90
2018-03-07T16:47:09.864Z,13.86
2018-03-07T16:49:36.314Z,13.83
2018-03-07T16:52:02.733Z,13.78
2018-03-07T16:54:29.281Z,13.71
2018-03-07T16:56:55.722Z,13.66
2018-03-07T16:59:22.275Z,13.63
2018-03-07T17:01:48.766Z,13.61
2018-03-07T17:04:15.158Z,13.53
2018-03-07T17:06:41.546Z,13.50
2018-03-07T17:09:08.051Z,13.46
2018-03-07T17:11:34.516Z,13.45
2018-03-07T17:14:00.858Z,13.43
2018-03-07T17:16:27.306Z,13.36
2018-03-07T17:18:53.702Z,13.32
2018-03-07T17:21:20.046Z,13.28
2018-03-07T17:23:46.477Z,13.25
2018-03-07T17:26:12.960Z,13.27
2018-03-07T17:28:39.370Z,13.25
2018-03-07T17:31:05.862Z,13.20
2018-03-07T17:33:32.593Z,13.15
2018-03-07T17:35:58.990Z,13.09
2018-03-07T17:38:25.489Z,13.04
2018-03-07T17:40:51.989Z,12.98
2018-03-07T17:43:18.422Z,12.93
2018-03-07T17:45:44.935Z,12.87
2018-03-07T17:48:11.382Z,12.83
2018-03-07T17:50:37.772Z,12.82
2018-03-07T17:53:04.282Z,12.79
2018-03-07T17:55:30.749Z,12.77
2018-03-07T17:57:57.209Z,12.73
2018-03-07T18:00:23.678Z,12.70
2018-03-07T18:02:50.094Z,12.67
2018-03-07T18:05:16.486Z,12.62
2018-03-07T18:07:42.893Z,12.57
2018-03-07T18:10:09.295Z,12.54
2018-03-07T18:12:35.733Z,12.51
2018-03-07T18:15:02.203Z,12.49
2018-03-07T18:17:28.571Z,12.45
2018-03-07T18:19:55.013Z,12.40
2018-03-07T18:22:21.518Z,12.37
2018-03-07T18:24:47.886Z,12.36
2018-03-07T18:27:14.422Z,12.40
2018-03-07T18:29:40.862Z,12.38
2018-03-07T18:32:07.260Z,12.32
2018-03-07T18:34:33.742Z,12.36
2018-03-07T18:37:00.198Z,12.36
2018-03-07T18:39:26.647Z,12.34
2018-03-07T18:41:53.041Z,12.33
2018-03-07T18:44:19.501Z,12.30
2018-03-07T18:46:45.926Z,12.29
2018-03-07T18:49:12.305Z,12.23
2018-03-07T18:51:38.983Z,12.22
2018-03-07T18:54:05.480Z,12.18
2018-03-07T18:56:31.937Z,12.14
2018-03-07T18:58:58.350Z,12.10
2018-03-07T19:01:24.847Z,12.09
2018-03-07T19:03:51.263Z,12.08
2018-03-07T19:06:17.747Z,12.00
2018-03-07T19:08:44.122Z,12.01
2018-03-07T19:11:10.526Z,12.01
2018-03-07T19:13:36.993Z,12.01
2018-03-07T19:16:04.349Z,12.00
2018-03-07T19:18:30.742Z,11.97
2018-03-07T19:20:57.177Z,11.95
2018-03-07T19:23:23.638Z,11.92
2018-03-07T19:25:49.989Z,11.90
2018-03-07T19:28:16.450Z,11.90
2018-03-07T19:30:42.866Z,11.87
2018-03-07T19:33:09.377Z,11.81
2018-03-07T19:35:35.748Z,11.78
2018-03-07T19:38:02.157Z,11.78
2018-03-07T19:40:28.621Z,11.75
2018-03-07T19:42:55.098Z,11.75
2018-03-07T19:45:21.466Z,11.72
2018-03-07T19:47:47.949Z,11.71
2018-03-07T19:50:14.321Z,11.72
2018-03-07T19:52:40.678Z,11.66
2018-03-07T19:55:07.102Z,11.64
2018-03-07T19:57:33.494Z,11.62
2018-03-07T19:59:59.929Z,11.62
2018-03-07T20:02:26.421Z,11.58
2018-03-07T20:04:52.877Z,11.58
2018-03-07T20:07:19.280Z,11.58
2018-03-07T20:09:45.813Z,11.55
2018-03-07T20:12:12.320Z,11.48
2018-03-07T20:14:38.638Z,11.47
2018-03-07T20:17:05.090Z,11.43
2018-03-07T20:19:31.486Z,11.43
2018-03-07T20:21:58.073Z,11.44
2018-03-07T20:24:24.518Z,11.47
2018-03-07T20:26:50.921Z,11.44
2018-03-07T20:29:17.305Z,11.41
2018-03-07T20:31:43.813Z,11.36
2018-03-07T20:34:10.189Z,11.32
2018-03-07T20:36:36.722Z,11.29
2018-03-07T20:39:03.274Z,11.35
2018-03-07T20:41:29.685Z,11.31
2018-03-07T20:43:56.089Z,11.32
2018-03-07T20:46:22.528Z,11.27
2018-03-07T20:48:48.884Z,11.25
2018-03-07T20:51:15.336Z,11.21
2018-03-07T20:53:42.688Z,11.14
2018-03-07T20:56:09.047Z,11.11
2018-03-07T20:58:35.433Z,11.10
2018-03-07T21:01:01.819Z,11.05
2018-03-07T21:03:28.246Z,11.05
2018-03-07T21:05:54.661Z,10.99
2018-03-07T21:08:21.034Z,10.95
2018-03-07T21:10:47.442Z,10.92
2018-03-07T21:13:13.862Z,10.91
2018-03-07T21:15:40.222Z,10.91
2018-03-07T21:18:06.666Z,10.91
2018-03-07T21:20:33.070Z,10.84
2018-03-07T21:22:59.470Z,10.78
2018-03-07T21:25:25.846Z,10.62
2018-03-07T21:27:52.274Z,10.64
2018-03-07T21:30:18.636Z,10.54
2018-03-07T21:32:45.061Z,10.46
2018-03-07T21:35:11.537Z,10.46
2018-03-07T21:37:37.927Z,10.38
2018-03-07T21:40:04.366Z,10.36
2018-03-07T21:42:30.719Z,10.39
2018-03-07T21:44:57.090Z,10.32
2018-03-07T21:47:23.454Z,10.40
2018-03-07T21:49:49.818Z,10.46
2018-03-07T21:52:16.179Z,10.49
2018-03-07T21:54:42.613Z,10.49
2018-03-07T21:57:08.982Z,10.46
2018-03-07T21:59:35.366Z,10.46
2018-03-07T22:02:01.729Z,10.39
2018-03-07T22:04:28.086Z,10.36
2018-03-07T22:06:54.438Z,10.45
2018-03-07T22:09:20.843Z,10.42
2018-03-07T22:11:47.218Z,10.40
2018-03-07T22:14:13.588Z,10.32
2018-03-07T22:16:39.958Z,10.37
2018-03-07T22:19:06.326Z,10.35
2018-03-07T22:21:32.753Z,10.27
2018-03-07T22:23:59.114Z,10.28
2018-03-07T22:26:25.476Z,10.24
2018-03-07T22:28:51.841Z,10.29
2018-03-07T22:31:18.274Z,10.27
2018-03-07T22:33:44.622Z,10.25
2018-03-07T22:36:10.986Z,10.25
2018-03-07T22:38:37.361Z,10.24
2018-03-07T22:41:03.854Z,10.23
2018-03-07T22:43:30.352Z,10.23
2018-03-07T22:45:56.755Z,10.14
2018-03-07T22:48:23.157Z,10.13
2018-03-07T22:50:49.549Z,10.07
2018-03-07T22:53:15.982Z,10.09
2018-03-07T22:55:42.361Z,10.12
2018-03-07T22:58:08.751Z,10.12
2018-03-07T23:00:41.198Z,10.06
2018-03-07T23:03:07.677Z,9.97
2018-03-07T23:05:34.136Z,9.97
2018-03-07T23:08:00.489Z,9.96
2018-03-07T23:10:27.053Z,9.82
2018-03-07T23:12:53.455Z,9.86
2018-03-07T23:15:19.842Z,9.89
2018-03-07T23:17:46.242Z,9.89
2018-03-07T23:20:12.721Z,9.87
2018-03-07T23:22:39.176Z,9.82
2018-03-07T23:25:05.610Z,9.82
2018-03-07T23:27:32.001Z,9.80
2018-03-07T23:29:58.449Z,9.78
2018-03-07T23:32:24.910Z,9.76
2018-03-07T23:34:51.302Z,9.77
2018-03-07T23:37:17.686Z,9.79
2018-03-07T23:39:44.078Z,9.78
2018-03-07T23:42:10.469Z,9.79
2018-03-07T23:44:36.884Z,9.63
2018-03-07T23:47:03.541Z,9.66
2018-03-07T23:49:30.002Z,9.69
2018-03-07T23:51:56.365Z,9.61
2018-03-07T23:54:22.760Z,9.65
2018-03-07T23:56:49.165Z,9.66
2018-03-07T23:59:15.718Z,9.63
